DWD Radarbild

   
[Quelle: ADDS]
METAR
EDLP 132250Z 25011KT 210V280 9999 SCT009 BKN015 OVC020 05/03 Q0984 =
EDLP 131700Z 1318/1418 22006KT 7000 BKN007 BECMG 1318/1321 24013KT TEMPO 1318/1323 2500 DZRA BR BKN004 BECMG 1323/1401 BKN020 BECMG 1407/1410 24015G25KT TEMPO 1407/1410 RA BKN012 TEMPO 1410/1418 24020G35KT SHRA BKN020TCU
TAF
EDLP 131700Z 1318/1418 22006KT 7000 BKN007 BECMG 1318/1321 24013KT TEMPO 1318/1323 2500 DZRA BR BKN004 BECMG 1323/1401 BKN020 BECMG 1407/1410 24015G25KT TEMPO 1407/1410 RA BKN012 TEMPO 1410/1418 24020G35KT SHRA BKN020TCU =
   
   

Meine WettercamWettercam aus Bielefeld Senne - Blickrichtung Süd-Ost

   
Moon phase
Phase:
Abnehmend

Mondphase:
96%

Alter:
17 Tage

Entfernung:
234,108 Km

Zeit:
00:24:41

Datum:
14-12-2019

   
<<  Dez 2019  >>
 Mo  Di  Mi  Do  Fr  Sa  So 
        1
  2  3  4  5  6  7  8
  9101112131415
16171819202122
23242526272829
3031